sensor_id;sensor_type;location;lat;lon;timestamp;temperature;humidity
25918;DHT22;13899;51.174;4.456;2023-10-19T00:02:05;16.40;99.90
25918;DHT22;13899;51.174;4.456;2023-10-19T00:04:32;16.50;99.90
25918;DHT22;13899;51.174;4.456;2023-10-19T00:07:00;16.40;99.90
25918;DHT22;13899;51.174;4.456;2023-10-19T00:09:26;16.40;99.90
25918;DHT22;13899;51.174;4.456;2023-10-19T00:12:01;16.40;99.90
25918;DHT22;13899;51.174;4.456;2023-10-19T00:14:28;16.50;99.90
25918;DHT22;13899;51.174;4.456;2023-10-19T00:16:53;16.30;99.90
25918;DHT22;13899;51.174;4.456;2023-10-19T00:19:22;16.40;99.90
25918;DHT22;13899;51.174;4.456;2023-10-19T00:21:53;16.30;99.90
25918;DHT22;13899;51.174;4.456;2023-10-19T00:24:27;16.30;99.90
25918;DHT22;13899;51.174;4.456;2023-10-19T00:26:53;16.40;99.90
25918;DHT22;13899;51.174;4.456;2023-10-19T00:29:20;16.40;99.90
25918;DHT22;13899;51.174;4.456;2023-10-19T00:31:59;16.40;99.90
25918;DHT22;13899;51.174;4.456;2023-10-19T00:34:27;16.60;99.90
25918;DHT22;13899;51.174;4.456;2023-10-19T00:36:54;16.60;99.90
25918;DHT22;13899;51.174;4.456;2023-10-19T00:39:22;16.50;99.90
25918;DHT22;13899;51.174;4.456;2023-10-19T00:41:49;16.40;99.90
25918;DHT22;13899;51.174;4.456;2023-10-19T00:44:16;16.40;99.90
25918;DHT22;13899;51.174;4.456;2023-10-19T00:47:02;16.40;99.90
25918;DHT22;13899;51.174;4.456;2023-10-19T00:49:30;16.40;99.90
25918;DHT22;13899;51.174;4.456;2023-10-19T00:51:56;16.30;99.90
25918;DHT22;13899;51.174;4.456;2023-10-19T00:54:38;16.40;99.90
25918;DHT22;13899;51.174;4.456;2023-10-19T00:57:18;16.40;99.90
25918;DHT22;13899;51.174;4.456;2023-10-19T00:59:57;16.40;99.90
25918;DHT22;13899;51.174;4.456;2023-10-19T01:02:37;16.40;99.90
25918;DHT22;13899;51.174;4.456;2023-10-19T01:05:09;16.40;99.90
25918;DHT22;13899;51.174;4.456;2023-10-19T01:07:39;16.40;99.90
25918;DHT22;13899;51.174;4.456;2023-10-19T01:10:07;16.50;99.90
25918;DHT22;13899;51.174;4.456;2023-10-19T01:12:34;16.50;99.90
25918;DHT22;13899;51.174;4.456;2023-10-19T01:15:15;16.60;99.90
25918;DHT22;13899;51.174;4.456;2023-10-19T01:17:55;16.60;99.90
25918;DHT22;13899;51.174;4.456;2023-10-19T01:20:28;16.50;99.90
25918;DHT22;13899;51.174;4.456;2023-10-19T01:23:01;16.40;99.90
25918;DHT22;13899;51.174;4.456;2023-10-19T01:28:12;16.30;99.90
25918;DHT22;13899;51.174;4.456;2023-10-19T01:30:43;16.30;99.90
25918;DHT22;13899;51.174;4.456;2023-10-19T01:33:17;16.30;99.90
25918;DHT22;13899;51.174;4.456;2023-10-19T01:35:44;16.30;99.90
25918;DHT22;13899;51.174;4.456;2023-10-19T01:38:29;16.40;99.90
25918;DHT22;13899;51.174;4.456;2023-10-19T01:41:03;16.40;99.90
25918;DHT22;13899;51.174;4.456;2023-10-19T01:43:32;16.40;99.90
25918;DHT22;13899;51.174;4.456;2023-10-19T01:46:01;16.50;99.90
25918;DHT22;13899;51.174;4.456;2023-10-19T01:48:31;16.50;99.90
25918;DHT22;13899;51.174;4.456;2023-10-19T01:51:01;16.60;99.90
25918;DHT22;13899;51.174;4.456;2023-10-19T01:53:29;16.50;99.90
25918;DHT22;13899;51.174;4.456;2023-10-19T01:55:55;16.50;99.90
25918;DHT22;13899;51.174;4.456;2023-10-19T01:58:27;16.60;99.90
25918;DHT22;13899;51.174;4.456;2023-10-19T02:00:53;16.70;99.90
25918;DHT22;13899;51.174;4.456;2023-10-19T02:03:35;16.80;99.90
25918;DHT22;13899;51.174;4.456;2023-10-19T02:06:02;16.80;99.90
25918;DHT22;13899;51.174;4.456;2023-10-19T02:08:52;16.60;99.90
25918;DHT22;13899;51.174;4.456;2023-10-19T02:11:24;16.50;99.90
25918;DHT22;13899;51.174;4.456;2023-10-19T02:13:55;16.50;99.90
25918;DHT22;13899;51.174;4.456;2023-10-19T02:16:26;16.40;99.90
25918;DHT22;13899;51.174;4.456;2023-10-19T02:18:55;16.40;99.90
25918;DHT22;13899;51.174;4.456;2023-10-19T02:21:20;16.30;99.90
25918;DHT22;13899;51.174;4.456;2023-10-19T02:23:56;16.30;99.90
25918;DHT22;13899;51.174;4.456;2023-10-19T02:26:23;16.30;99.90
25918;DHT22;13899;51.174;4.456;2023-10-19T02:28:51;16.30;99.90
25918;DHT22;13899;51.174;4.456;2023-10-19T02:31:17;16.20;99.90
25918;DHT22;13899;51.174;4.456;2023-10-19T02:33:51;16.20;99.90
25918;DHT22;13899;51.174;4.456;2023-10-19T02:36:20;16.20;99.90
25918;DHT22;13899;51.174;4.456;2023-10-19T02:38:46;16.30;99.90
25918;DHT22;13899;51.174;4.456;2023-10-19T02:41:18;16.30;99.90
25918;DHT22;13899;51.174;4.456;2023-10-19T02:43:47;16.30;99.90
25918;DHT22;13899;51.174;4.456;2023-10-19T02:46:17;16.20;99.90
25918;DHT22;13899;51.174;4.456;2023-10-19T02:48:46;16.10;99.90
25918;DHT22;13899;51.174;4.456;2023-10-19T02:51:15;16.10;99.90
25918;DHT22;13899;51.174;4.456;2023-10-19T02:53:41;16.00;99.90
25918;DHT22;13899;51.174;4.456;2023-10-19T02:56:15;16.00;99.90
25918;DHT22;13899;51.174;4.456;2023-10-19T02:58:49;16.00;99.90
25918;DHT22;13899;51.174;4.456;2023-10-19T03:01:20;16.00;99.90
25918;DHT22;13899;51.174;4.456;2023-10-19T03:03:55;15.90;99.90
25918;DHT22;13899;51.174;4.456;2023-10-19T03:06:25;15.90;99.90
25918;DHT22;13899;51.174;4.456;2023-10-19T03:08:51;15.80;99.90
25918;DHT22;13899;51.174;4.456;2023-10-19T03:11:40;15.70;99.90
25918;DHT22;13899;51.174;4.456;2023-10-19T03:14:07;15.70;99.90
25918;DHT22;13899;51.174;4.456;2023-10-19T03:16:35;15.70;99.90
25918;DHT22;13899;51.174;4.456;2023-10-19T03:19:01;15.60;99.90
25918;DHT22;13899;51.174;4.456;2023-10-19T03:21:27;15.60;99.90
25918;DHT22;13899;51.174;4.456;2023-10-19T03:23:55;15.40;99.90
25918;DHT22;13899;51.174;4.456;2023-10-19T03:26:22;15.40;99.90
25918;DHT22;13899;51.174;4.456;2023-10-19T03:28:53;15.40;99.90
25918;DHT22;13899;51.174;4.456;2023-10-19T03:31:23;15.50;99.90
25918;DHT22;13899;51.174;4.456;2023-10-19T03:33:53;15.50;99.90
25918;DHT22;13899;51.174;4.456;2023-10-19T03:36:24;15.50;99.90
25918;DHT22;13899;51.174;4.456;2023-10-19T03:38:50;15.40;99.90
25918;DHT22;13899;51.174;4.456;2023-10-19T03:41:17;15.40;99.90
25918;DHT22;13899;51.174;4.456;2023-10-19T03:43:48;15.30;99.90
25918;DHT22;13899;51.174;4.456;2023-10-19T03:46:14;15.40;99.90
25918;DHT22;13899;51.174;4.456;2023-10-19T03:48:48;15.30;99.90
25918;DHT22;13899;51.174;4.456;2023-10-19T03:51:14;15.50;99.90
25918;DHT22;13899;51.174;4.456;2023-10-19T03:53:40;15.50;99.90
25918;DHT22;13899;51.174;4.456;2023-10-19T03:56:12;15.50;99.90
25918;DHT22;13899;51.174;4.456;2023-10-19T03:58:38;15.50;99.90
25918;DHT22;13899;51.174;4.456;2023-10-19T04:01:05;15.50;99.90
25918;DHT22;13899;51.174;4.456;2023-10-19T04:03:32;15.50;99.90
25918;DHT22;13899;51.174;4.456;2023-10-19T04:05:58;15.50;99.90
25918;DHT22;13899;51.174;4.456;2023-10-19T04:08:26;15.50;99.90
25918;DHT22;13899;51.174;4.456;2023-10-19T04:10:52;15.40;99.90
25918;DHT22;13899;51.174;4.456;2023-10-19T04:13:53;15.50;99.90
25918;DHT22;13899;51.174;4.456;2023-10-19T04:16:20;15.50;99.90
25918;DHT22;13899;51.174;4.456;2023-10-19T04:18:46;15.50;99.90
25918;DHT22;13899;51.174;4.456;2023-10-19T04:21:11;15.50;99.90
25918;DHT22;13899;51.174;4.456;2023-10-19T04:23:37;15.50;99.90
25918;DHT22;13899;51.174;4.456;2023-10-19T04:26:03;15.50;99.90
25918;DHT22;13899;51.174;4.456;2023-10-19T04:28:40;15.60;99.90
25918;DHT22;13899;51.174;4.456;2023-10-19T04:31:16;15.80;99.90
25918;DHT22;13899;51.174;4.456;2023-10-19T04:33:42;15.80;99.90
25918;DHT22;13899;51.174;4.456;2023-10-19T04:36:11;15.70;99.90
25918;DHT22;13899;51.174;4.456;2023-10-19T04:38:37;15.60;99.90
25918;DHT22;13899;51.174;4.456;2023-10-19T04:41:07;15.70;99.90
25918;DHT22;13899;51.174;4.456;2023-10-19T04:43:37;15.70;99.90
25918;DHT22;13899;51.174;4.456;2023-10-19T04:46:08;15.60;99.90
25918;DHT22;13899;51.174;4.456;2023-10-19T04:48:40;15.60;99.90
25918;DHT22;13899;51.174;4.456;2023-10-19T04:51:09;15.60;99.90
25918;DHT22;13899;51.174;4.456;2023-10-19T04:53:38;15.60;99.90
25918;DHT22;13899;51.174;4.456;2023-10-19T04:56:05;15.60;99.90
25918;DHT22;13899;51.174;4.456;2023-10-19T04:58:31;15.60;99.90
25918;DHT22;13899;51.174;4.456;2023-10-19T05:00:56;15.70;99.90
25918;DHT22;13899;51.174;4.456;2023-10-19T05:03:25;15.70;99.90
25918;DHT22;13899;51.174;4.456;2023-10-19T05:05:51;15.70;99.90
25918;DHT22;13899;51.174;4.456;2023-10-19T05:08:17;15.60;99.90
25918;DHT22;13899;51.174;4.456;2023-10-19T05:10:42;15.60;99.90
25918;DHT22;13899;51.174;4.456;2023-10-19T05:13:08;15.60;99.90
25918;DHT22;13899;51.174;4.456;2023-10-19T05:15:34;15.60;99.90
25918;DHT22;13899;51.174;4.456;2023-10-19T05:18:00;15.60;99.90
25918;DHT22;13899;51.174;4.456;2023-10-19T05:20:26;15.60;99.90
25918;DHT22;13899;51.174;4.456;2023-10-19T05:22:51;15.70;99.90
25918;DHT22;13899;51.174;4.456;2023-10-19T05:25:17;15.70;99.90
25918;DHT22;13899;51.174;4.456;2023-10-19T05:27:43;15.80;99.90
25918;DHT22;13899;51.174;4.456;2023-10-19T05:30:11;15.70;99.90
25918;DHT22;13899;51.174;4.456;2023-10-19T05:32:37;15.80;99.90
25918;DHT22;13899;51.174;4.456;2023-10-19T05:35:04;15.80;99.90
25918;DHT22;13899;51.174;4.456;2023-10-19T05:37:33;15.80;99.90
25918;DHT22;13899;51.174;4.456;2023-10-19T05:39:59;15.80;99.90
25918;DHT22;13899;51.174;4.456;2023-10-19T05:42:24;15.80;99.90
25918;DHT22;13899;51.174;4.456;2023-10-19T05:44:51;15.70;99.90
25918;DHT22;13899;51.174;4.456;2023-10-19T05:47:17;15.70;99.90
25918;DHT22;13899;51.174;4.456;2023-10-19T05:49:42;15.70;99.90
25918;DHT22;13899;51.174;4.456;2023-10-19T05:52:09;15.70;99.90
25918;DHT22;13899;51.174;4.456;2023-10-19T05:54:35;15.90;99.90
25918;DHT22;13899;51.174;4.456;2023-10-19T05:57:03;15.80;99.90
25918;DHT22;13899;51.174;4.456;2023-10-19T05:59:33;15.80;99.90
25918;DHT22;13899;51.174;4.456;2023-10-19T06:01:58;15.80;99.90
25918;DHT22;13899;51.174;4.456;2023-10-19T06:04:24;15.70;99.90
25918;DHT22;13899;51.174;4.456;2023-10-19T06:06:50;15.70;99.90
25918;DHT22;13899;51.174;4.456;2023-10-19T06:09:17;15.70;99.90
25918;DHT22;13899;51.174;4.456;2023-10-19T06:11:42;15.70;99.90
25918;DHT22;13899;51.174;4.456;2023-10-19T06:14:08;15.70;99.90
25918;DHT22;13899;51.174;4.456;2023-10-19T06:16:35;15.70;99.90
25918;DHT22;13899;51.174;4.456;2023-10-19T06:19:00;15.80;99.90
25918;DHT22;13899;51.174;4.456;2023-10-19T06:21:26;15.70;99.90
25918;DHT22;13899;51.174;4.456;2023-10-19T06:23:52;15.70;99.90
25918;DHT22;13899;51.174;4.456;2023-10-19T06:26:19;15.80;99.90
25918;DHT22;13899;51.174;4.456;2023-10-19T06:28:44;15.80;99.90
25918;DHT22;13899;51.174;4.456;2023-10-19T06:31:10;15.80;99.90
25918;DHT22;13899;51.174;4.456;2023-10-19T06:33:36;15.80;99.90
25918;DHT22;13899;51.174;4.456;2023-10-19T06:36:07;15.80;99.90
25918;DHT22;13899;51.174;4.456;2023-10-19T06:38:32;15.80;99.90
25918;DHT22;13899;51.174;4.456;2023-10-19T06:40:59;15.90;99.90
25918;DHT22;13899;51.174;4.456;2023-10-19T06:43:25;15.80;99.90
25918;DHT22;13899;51.174;4.456;2023-10-19T06:45:55;15.80;99.90
25918;DHT22;13899;51.174;4.456;2023-10-19T06:48:21;15.80;99.90
25918;DHT22;13899;51.174;4.456;2023-10-19T06:50:46;15.80;99.90
25918;DHT22;13899;51.174;4.456;2023-10-19T06:53:12;15.90;99.90
25918;DHT22;13899;51.174;4.456;2023-10-19T06:55:38;15.80;99.90
25918;DHT22;13899;51.174;4.456;2023-10-19T06:58:04;15.80;99.90
25918;DHT22;13899;51.174;4.456;2023-10-19T07:00:30;15.80;99.90
25918;DHT22;13899;51.174;4.456;2023-10-19T07:02:57;15.70;99.90
25918;DHT22;13899;51.174;4.456;2023-10-19T07:05:25;15.70;99.90
25918;DHT22;13899;51.174;4.456;2023-10-19T07:07:52;15.80;99.90
25918;DHT22;13899;51.174;4.456;2023-10-19T07:10:19;15.70;99.90
25918;DHT22;13899;51.174;4.456;2023-10-19T07:12:47;15.70;99.90
25918;DHT22;13899;51.174;4.456;2023-10-19T07:15:14;15.80;99.90
25918;DHT22;13899;51.174;4.456;2023-10-19T07:17:43;15.80;99.90
25918;DHT22;13899;51.174;4.456;2023-10-19T07:20:11;15.80;99.90
25918;DHT22;13899;51.174;4.456;2023-10-19T07:22:55;15.90;99.90
25918;DHT22;13899;51.174;4.456;2023-10-19T07:25:24;15.90;99.90
25918;DHT22;13899;51.174;4.456;2023-10-19T07:27:52;15.80;99.90
25918;DHT22;13899;51.174;4.456;2023-10-19T07:30:19;16.00;99.90
25918;DHT22;13899;51.174;4.456;2023-10-19T07:32:51;16.00;99.90
25918;DHT22;13899;51.174;4.456;2023-10-19T07:35:21;15.90;99.90
25918;DHT22;13899;51.174;4.456;2023-10-19T07:37:48;16.00;99.90
25918;DHT22;13899;51.174;4.456;2023-10-19T07:40:15;16.10;99.90
25918;DHT22;13899;51.174;4.456;2023-10-19T07:42:41;16.20;99.90
25918;DHT22;13899;51.174;4.456;2023-10-19T07:45:08;16.30;99.90
25918;DHT22;13899;51.174;4.456;2023-10-19T07:47:40;16.20;99.90
25918;DHT22;13899;51.174;4.456;2023-10-19T07:50:07;16.30;99.90
25918;DHT22;13899;51.174;4.456;2023-10-19T07:52:44;16.40;99.90
25918;DHT22;13899;51.174;4.456;2023-10-19T07:55:10;16.50;99.90
25918;DHT22;13899;51.174;4.456;2023-10-19T07:57:36;16.40;99.90
25918;DHT22;13899;51.174;4.456;2023-10-19T08:00:02;16.40;99.90
25918;DHT22;13899;51.174;4.456;2023-10-19T08:02:29;16.40;99.90
25918;DHT22;13899;51.174;4.456;2023-10-19T08:04:56;16.30;99.90
25918;DHT22;13899;51.174;4.456;2023-10-19T08:07:22;16.50;99.90
25918;DHT22;13899;51.174;4.456;2023-10-19T08:09:47;16.60;99.90
25918;DHT22;13899;51.174;4.456;2023-10-19T08:12:13;16.70;99.90
25918;DHT22;13899;51.174;4.456;2023-10-19T08:14:39;16.90;99.90
25918;DHT22;13899;51.174;4.456;2023-10-19T08:17:05;17.00;99.90
25918;DHT22;13899;51.174;4.456;2023-10-19T08:19:34;16.80;99.90
25918;DHT22;13899;51.174;4.456;2023-10-19T08:22:01;16.80;99.90
25918;DHT22;13899;51.174;4.456;2023-10-19T08:24:26;16.80;99.90
25918;DHT22;13899;51.174;4.456;2023-10-19T08:26:54;16.90;99.90
25918;DHT22;13899;51.174;4.456;2023-10-19T08:29:20;17.00;99.90
25918;DHT22;13899;51.174;4.456;2023-10-19T08:31:47;16.90;99.90
25918;DHT22;13899;51.174;4.456;2023-10-19T08:34:12;16.90;99.90
25918;DHT22;13899;51.174;4.456;2023-10-19T08:36:39;16.90;99.90
25918;DHT22;13899;51.174;4.456;2023-10-19T08:39:06;16.80;99.90
25918;DHT22;13899;51.174;4.456;2023-10-19T08:41:36;16.80;99.90
25918;DHT22;13899;51.174;4.456;2023-10-19T08:44:07;17.00;99.90
25918;DHT22;13899;51.174;4.456;2023-10-19T08:46:42;17.00;99.90
25918;DHT22;13899;51.174;4.456;2023-10-19T08:49:10;17.00;99.90
25918;DHT22;13899;51.174;4.456;2023-10-19T08:51:37;17.20;99.90
25918;DHT22;13899;51.174;4.456;2023-10-19T08:54:05;17.20;99.90
25918;DHT22;13899;51.174;4.456;2023-10-19T08:56:32;17.20;99.90
25918;DHT22;13899;51.174;4.456;2023-10-19T08:58:59;17.20;99.90
25918;DHT22;13899;51.174;4.456;2023-10-19T09:01:27;17.40;99.90
25918;DHT22;13899;51.174;4.456;2023-10-19T09:03:57;17.80;99.90
25918;DHT22;13899;51.174;4.456;2023-10-19T09:06:23;17.70;99.90
25918;DHT22;13899;51.174;4.456;2023-10-19T09:08:48;17.80;99.90
25918;DHT22;13899;51.174;4.456;2023-10-19T09:11:15;18.00;99.90
25918;DHT22;13899;51.174;4.456;2023-10-19T09:13:47;18.00;99.90
25918;DHT22;13899;51.174;4.456;2023-10-19T09:16:14;18.30;99.90
25918;DHT22;13899;51.174;4.456;2023-10-19T09:18:40;18.10;99.90
25918;DHT22;13899;51.174;4.456;2023-10-19T09:21:07;17.80;99.90
25918;DHT22;13899;51.174;4.456;2023-10-19T09:23:34;17.60;99.90
25918;DHT22;13899;51.174;4.456;2023-10-19T09:26:02;17.70;99.90
25918;DHT22;13899;51.174;4.456;2023-10-19T09:28:35;17.50;99.90
25918;DHT22;13899;51.174;4.456;2023-10-19T09:31:01;17.60;99.90
25918;DHT22;13899;51.174;4.456;2023-10-19T09:33:28;17.60;99.90
25918;DHT22;13899;51.174;4.456;2023-10-19T09:36:00;17.80;99.90
25918;DHT22;13899;51.174;4.456;2023-10-19T09:38:26;18.10;99.90
25918;DHT22;13899;51.174;4.456;2023-10-19T09:40:53;17.90;99.90
25918;DHT22;13899;51.174;4.456;2023-10-19T09:43:40;17.90;99.90
25918;DHT22;13899;51.174;4.456;2023-10-19T09:46:08;17.70;99.90
25918;DHT22;13899;51.174;4.456;2023-10-19T09:48:45;17.50;99.90
25918;DHT22;13899;51.174;4.456;2023-10-19T09:51:13;17.50;99.90
25918;DHT22;13899;51.174;4.456;2023-10-19T09:53:40;17.50;99.90
25918;DHT22;13899;51.174;4.456;2023-10-19T09:56:13;17.70;99.90
25918;DHT22;13899;51.174;4.456;2023-10-19T09:58:53;17.60;99.90
25918;DHT22;13899;51.174;4.456;2023-10-19T10:01:19;17.60;99.90
25918;DHT22;13899;51.174;4.456;2023-10-19T10:03:48;17.40;99.90
25918;DHT22;13899;51.174;4.456;2023-10-19T10:06:14;17.40;99.90
25918;DHT22;13899;51.174;4.456;2023-10-19T10:08:41;17.40;99.90
25918;DHT22;13899;51.174;4.456;2023-10-19T10:13:50;17.50;99.90
25918;DHT22;13899;51.174;4.456;2023-10-19T10:16:36;17.60;99.90
25918;DHT22;13899;51.174;4.456;2023-10-19T10:19:04;17.70;99.90
25918;DHT22;13899;51.174;4.456;2023-10-19T10:21:30;17.60;99.90
25918;DHT22;13899;51.174;4.456;2023-10-19T10:23:58;17.60;99.90
25918;DHT22;13899;51.174;4.456;2023-10-19T10:26:26;17.70;99.90
25918;DHT22;13899;51.174;4.456;2023-10-19T10:29:14;17.80;99.90
25918;DHT22;13899;51.174;4.456;2023-10-19T10:31:49;18.00;99.90
25918;DHT22;13899;51.174;4.456;2023-10-19T10:39:29;18.00;99.90
25918;DHT22;13899;51.174;4.456;2023-10-19T10:41:59;18.00;99.90
25918;DHT22;13899;51.174;4.456;2023-10-19T10:44:45;18.00;99.90
25918;DHT22;13899;51.174;4.456;2023-10-19T10:47:17;18.30;99.90
25918;DHT22;13899;51.174;4.456;2023-10-19T10:49:55;18.70;99.90
25918;DHT22;13899;51.174;4.456;2023-10-19T10:52:28;18.90;99.90
25918;DHT22;13899;51.174;4.456;2023-10-19T10:57:38;18.90;99.90
25918;DHT22;13899;51.174;4.456;2023-10-19T11:00:05;18.70;99.90
25918;DHT22;13899;51.174;4.456;2023-10-19T11:02:41;18.60;99.90
25918;DHT22;13899;51.174;4.456;2023-10-19T11:05:16;18.50;99.90
25918;DHT22;13899;51.174;4.456;2023-10-19T11:08:07;18.40;99.90
25918;DHT22;13899;51.174;4.456;2023-10-19T11:10:34;18.60;99.90
25918;DHT22;13899;51.174;4.456;2023-10-19T11:13:04;18.60;99.90
25918;DHT22;13899;51.174;4.456;2023-10-19T11:15:32;18.80;99.90
25918;DHT22;13899;51.174;4.456;2023-10-19T11:17:58;18.80;99.90
25918;DHT22;13899;51.174;4.456;2023-10-19T11:20:25;19.00;99.90
25918;DHT22;13899;51.174;4.456;2023-10-19T11:22:53;18.70;99.90
25918;DHT22;13899;51.174;4.456;2023-10-19T11:27:48;18.40;99.90
25918;DHT22;13899;51.174;4.456;2023-10-19T11:30:22;18.40;99.90
25918;DHT22;13899;51.174;4.456;2023-10-19T11:32:48;18.60;99.90
25918;DHT22;13899;51.174;4.456;2023-10-19T11:35:13;18.80;99.90
25918;DHT22;13899;51.174;4.456;2023-10-19T11:37:53;18.90;99.90
25918;DHT22;13899;51.174;4.456;2023-10-19T11:40:20;18.70;99.90
25918;DHT22;13899;51.174;4.456;2023-10-19T11:42:50;18.30;99.90
25918;DHT22;13899;51.174;4.456;2023-10-19T11:45:17;18.30;99.90
25918;DHT22;13899;51.174;4.456;2023-10-19T11:47:43;18.40;99.90
25918;DHT22;13899;51.174;4.456;2023-10-19T11:50:10;18.60;99.90
25918;DHT22;13899;51.174;4.456;2023-10-19T11:52:38;18.50;99.90
25918;DHT22;13899;51.174;4.456;2023-10-19T11:55:04;18.60;99.90
25918;DHT22;13899;51.174;4.456;2023-10-19T11:57:31;18.80;99.90
25918;DHT22;13899;51.174;4.456;2023-10-19T11:59:56;18.70;99.90
25918;DHT22;13899;51.174;4.456;2023-10-19T12:02:24;18.60;99.90
25918;DHT22;13899;51.174;4.456;2023-10-19T12:04:52;18.70;99.90
25918;DHT22;13899;51.174;4.456;2023-10-19T12:07:18;19.10;99.90
25918;DHT22;13899;51.174;4.456;2023-10-19T12:09:43;19.10;99.90
25918;DHT22;13899;51.174;4.456;2023-10-19T12:12:10;19.20;99.90
25918;DHT22;13899;51.174;4.456;2023-10-19T12:14:36;19.00;99.90
25918;DHT22;13899;51.174;4.456;2023-10-19T12:17:02;18.80;99.90
25918;DHT22;13899;51.174;4.456;2023-10-19T12:19:30;18.90;99.90
25918;DHT22;13899;51.174;4.456;2023-10-19T12:21:56;18.70;99.90
25918;DHT22;13899;51.174;4.456;2023-10-19T12:24:22;18.50;99.90
25918;DHT22;13899;51.174;4.456;2023-10-19T12:26:48;18.70;99.90
25918;DHT22;13899;51.174;4.456;2023-10-19T12:29:14;18.60;99.90
25918;DHT22;13899;51.174;4.456;2023-10-19T12:31:42;18.40;99.90
25918;DHT22;13899;51.174;4.456;2023-10-19T12:34:08;18.50;99.90
25918;DHT22;13899;51.174;4.456;2023-10-19T12:36:37;18.50;99.90
25918;DHT22;13899;51.174;4.456;2023-10-19T12:39:03;18.30;99.90
25918;DHT22;13899;51.174;4.456;2023-10-19T12:41:32;18.20;99.90
25918;DHT22;13899;51.174;4.456;2023-10-19T12:43:58;18.20;99.90
25918;DHT22;13899;51.174;4.456;2023-10-19T12:46:27;18.20;99.90
25918;DHT22;13899;51.174;4.456;2023-10-19T12:48:55;17.90;99.90
25918;DHT22;13899;51.174;4.456;2023-10-19T12:51:22;17.80;99.90
25918;DHT22;13899;51.174;4.456;2023-10-19T12:53:54;17.90;99.90
25918;DHT22;13899;51.174;4.456;2023-10-19T12:56:21;17.90;99.90
25918;DHT22;13899;51.174;4.456;2023-10-19T12:58:49;17.80;99.90
25918;DHT22;13899;51.174;4.456;2023-10-19T13:01:15;17.90;99.90
25918;DHT22;13899;51.174;4.456;2023-10-19T13:03:43;17.70;99.90
25918;DHT22;13899;51.174;4.456;2023-10-19T13:06:11;17.70;99.90
25918;DHT22;13899;51.174;4.456;2023-10-19T13:08:38;18.00;99.90
25918;DHT22;13899;51.174;4.456;2023-10-19T13:11:09;18.40;99.90
25918;DHT22;13899;51.174;4.456;2023-10-19T13:13:35;18.60;99.90
25918;DHT22;13899;51.174;4.456;2023-10-19T13:16:05;18.70;99.90
25918;DHT22;13899;51.174;4.456;2023-10-19T13:18:35;18.60;99.90
25918;DHT22;13899;51.174;4.456;2023-10-19T13:21:01;18.70;99.90
25918;DHT22;13899;51.174;4.456;2023-10-19T13:23:33;18.60;99.90
25918;DHT22;13899;51.174;4.456;2023-10-19T13:25:59;19.10;99.90
25918;DHT22;13899;51.174;4.456;2023-10-19T13:28:40;20.40;99.90
25918;DHT22;13899;51.174;4.456;2023-10-19T13:31:08;21.50;99.90
25918;DHT22;13899;51.174;4.456;2023-10-19T13:33:39;22.00;99.90
25918;DHT22;13899;51.174;4.456;2023-10-19T13:36:07;22.00;99.90
25918;DHT22;13899;51.174;4.456;2023-10-19T13:38:33;22.40;99.90
25918;DHT22;13899;51.174;4.456;2023-10-19T13:41:02;22.80;99.90
25918;DHT22;13899;51.174;4.456;2023-10-19T13:43:28;23.70;99.90
25918;DHT22;13899;51.174;4.456;2023-10-19T13:45:53;22.40;99.90
25918;DHT22;13899;51.174;4.456;2023-10-19T13:48:20;22.60;99.90
25918;DHT22;13899;51.174;4.456;2023-10-19T13:50:47;22.50;99.90
25918;DHT22;13899;51.174;4.456;2023-10-19T13:53:18;21.80;99.90
25918;DHT22;13899;51.174;4.456;2023-10-19T13:55:44;20.30;99.90
25918;DHT22;13899;51.174;4.456;2023-10-19T13:58:10;20.10;99.90
25918;DHT22;13899;51.174;4.456;2023-10-19T14:00:36;20.10;99.90
25918;DHT22;13899;51.174;4.456;2023-10-19T14:03:05;20.30;99.90
25918;DHT22;13899;51.174;4.456;2023-10-19T14:05:39;21.00;99.90
25918;DHT22;13899;51.174;4.456;2023-10-19T14:08:06;21.10;99.90
25918;DHT22;13899;51.174;4.456;2023-10-19T14:10:35;21.10;99.90
25918;DHT22;13899;51.174;4.456;2023-10-19T14:13:01;20.70;99.90
25918;DHT22;13899;51.174;4.456;2023-10-19T14:15:27;20.30;99.90
25918;DHT22;13899;51.174;4.456;2023-10-19T14:17:59;20.20;99.90
25918;DHT22;13899;51.174;4.456;2023-10-19T14:20:25;20.30;99.90
25918;DHT22;13899;51.174;4.456;2023-10-19T14:22:51;20.10;99.90
25918;DHT22;13899;51.174;4.456;2023-10-19T14:25:21;19.90;99.90
25918;DHT22;13899;51.174;4.456;2023-10-19T14:27:49;20.00;99.90
25918;DHT22;13899;51.174;4.456;2023-10-19T14:30:17;20.40;99.90
25918;DHT22;13899;51.174;4.456;2023-10-19T14:32:45;20.80;99.90
25918;DHT22;13899;51.174;4.456;2023-10-19T14:35:13;20.20;99.90
25918;DHT22;13899;51.174;4.456;2023-10-19T14:37:42;20.00;99.90
25918;DHT22;13899;51.174;4.456;2023-10-19T14:40:09;19.80;99.90
25918;DHT22;13899;51.174;4.456;2023-10-19T14:42:38;19.60;99.90
25918;DHT22;13899;51.174;4.456;2023-10-19T14:45:07;19.40;99.90
25918;DHT22;13899;51.174;4.456;2023-10-19T14:47:38;19.60;99.90
25918;DHT22;13899;51.174;4.456;2023-10-19T14:50:09;20.00;99.90
25918;DHT22;13899;51.174;4.456;2023-10-19T14:52:35;21.40;99.90
25918;DHT22;13899;51.174;4.456;2023-10-19T14:55:01;22.40;99.90
25918;DHT22;13899;51.174;4.456;2023-10-19T14:57:26;22.90;99.90
25918;DHT22;13899;51.174;4.456;2023-10-19T14:59:52;22.70;99.90
25918;DHT22;13899;51.174;4.456;2023-10-19T15:02:18;23.10;99.90
25918;DHT22;13899;51.174;4.456;2023-10-19T15:04:49;23.00;99.90
25918;DHT22;13899;51.174;4.456;2023-10-19T15:07:14;22.20;99.90
25918;DHT22;13899;51.174;4.456;2023-10-19T15:09:40;21.50;99.90
25918;DHT22;13899;51.174;4.456;2023-10-19T15:12:06;21.20;99.90
25918;DHT22;13899;51.174;4.456;2023-10-19T15:14:32;21.60;99.90
25918;DHT22;13899;51.174;4.456;2023-10-19T15:16:58;21.50;99.90
25918;DHT22;13899;51.174;4.456;2023-10-19T15:19:23;21.80;99.90
25918;DHT22;13899;51.174;4.456;2023-10-19T15:21:49;22.20;99.90
25918;DHT22;13899;51.174;4.456;2023-10-19T15:24:15;21.50;99.90
25918;DHT22;13899;51.174;4.456;2023-10-19T15:26:41;21.30;99.90
25918;DHT22;13899;51.174;4.456;2023-10-19T15:29:08;20.60;99.90
25918;DHT22;13899;51.174;4.456;2023-10-19T15:31:35;20.10;99.90
25918;DHT22;13899;51.174;4.456;2023-10-19T15:34:00;20.20;99.90
25918;DHT22;13899;51.174;4.456;2023-10-19T15:36:26;20.30;99.90
25918;DHT22;13899;51.174;4.456;2023-10-19T15:38:52;20.20;99.90
25918;DHT22;13899;51.174;4.456;2023-10-19T15:41:17;20.00;99.90
25918;DHT22;13899;51.174;4.456;2023-10-19T15:43:43;19.90;99.90
25918;DHT22;13899;51.174;4.456;2023-10-19T15:46:09;19.60;99.90
25918;DHT22;13899;51.174;4.456;2023-10-19T15:48:38;19.50;99.90
25918;DHT22;13899;51.174;4.456;2023-10-19T15:51:05;19.30;99.90
25918;DHT22;13899;51.174;4.456;2023-10-19T15:53:33;19.20;99.90
25918;DHT22;13899;51.174;4.456;2023-10-19T15:56:00;19.30;99.90